Drake Field Fayetteville US
ICAO: KFYV
IATA: FYV
Category: Medium
Scheduled Services: No

Elevation: 1251 ft
TransAlt. 18000 ft.

Airport Communications:
RAZORBACK APP/DEP:121
ATIS:133.1
CTAF:128
GND:121.8
JONESBORO RDO:122.3
TWR:128
UNICOM:122.95

KFYV Zoom In..

Runways:

(A) RW 16 length 6005 ft width 100 ft
LOC 111.90 / hdg 164

(B) RW 34 length 6005 ft width 100 ft
LOC 111.90 / hdg 344

Location; KFYV
Day. 22 / Time. 00.21 Zulu
* Altimeter: 30.05
* Temperature: 12° c. 53.6°f.
* Wind from: 000° Speed 00 kn.
Dewpoint: 12° c.
Visibility: 4 Statute Miles.
Clouds: Broken 4400 ft.
Clouds: Overcast 5500 ft.
Conditions: Light Rain.Conditions: Mist.

KFYV 220021Z 00000KT 4SM -RA BR BKN044 OVC055 12/12 A3005 RMK AO2 P0006 T01220117


Wind - Calm.

  YouTube Music Video
 
jpsmedia.com for Web Design  worldairports.se 2018   terms of use